sensor_id;sensor_type;location;lat;lon;timestamp;P1;durP1;ratioP1;P2;durP2;ratioP2
16737;SDS011;17906;47.684;10.806;2022-12-29T00:02:19;6.80;;;2.30;;
16737;SDS011;17906;47.684;10.806;2022-12-29T00:04:45;5.27;;;1.90;;
16737;SDS011;17906;47.684;10.806;2022-12-29T00:07:13;1.70;;;0.80;;
16737;SDS011;17906;47.684;10.806;2022-12-29T00:09:40;1.63;;;0.80;;
16737;SDS011;17906;47.684;10.806;2022-12-29T00:12:07;1.07;;;0.70;;
16737;SDS011;17906;47.684;10.806;2022-12-29T00:14:33;1.57;;;0.60;;
16737;SDS011;17906;47.684;10.806;2022-12-29T00:17:18;0.80;;;0.43;;
16737;SDS011;17906;47.684;10.806;2022-12-29T00:19:44;0.90;;;0.50;;
16737;SDS011;17906;47.684;10.806;2022-12-29T00:22:30;0.80;;;0.40;;
16737;SDS011;17906;47.684;10.806;2022-12-29T00:25:14;1.10;;;0.53;;
16737;SDS011;17906;47.684;10.806;2022-12-29T00:27:58;1.80;;;0.70;;
16737;SDS011;17906;47.684;10.806;2022-12-29T00:30:42;1.17;;;0.57;;
16737;SDS011;17906;47.684;10.806;2022-12-29T00:33:28;1.10;;;0.37;;
16737;SDS011;17906;47.684;10.806;2022-12-29T00:36:15;0.83;;;0.40;;
16737;SDS011;17906;47.684;10.806;2022-12-29T00:38:48;0.93;;;0.40;;
16737;SDS011;17906;47.684;10.806;2022-12-29T00:41:36;0.87;;;0.50;;
16737;SDS011;17906;47.684;10.806;2022-12-29T00:44:20;0.80;;;0.50;;
16737;SDS011;17906;47.684;10.806;2022-12-29T00:46:47;1.30;;;0.53;;
16737;SDS011;17906;47.684;10.806;2022-12-29T00:49:14;0.53;;;0.30;;
16737;SDS011;17906;47.684;10.806;2022-12-29T00:52:00;1.30;;;0.57;;
16737;SDS011;17906;47.684;10.806;2022-12-29T00:54:30;1.40;;;0.40;;
16737;SDS011;17906;47.684;10.806;2022-12-29T00:56:58;0.80;;;0.30;;
16737;SDS011;17906;47.684;10.806;2022-12-29T00:59:25;0.97;;;0.50;;
16737;SDS011;17906;47.684;10.806;2022-12-29T01:01:52;1.23;;;0.50;;
16737;SDS011;17906;47.684;10.806;2022-12-29T01:04:20;1.13;;;0.47;;
16737;SDS011;17906;47.684;10.806;2022-12-29T01:06:48;1.57;;;0.50;;
16737;SDS011;17906;47.684;10.806;2022-12-29T01:09:15;0.50;;;0.40;;
16737;SDS011;17906;47.684;10.806;2022-12-29T01:12:02;0.77;;;0.40;;
16737;SDS011;17906;47.684;10.806;2022-12-29T01:14:28;1.00;;;0.37;;
16737;SDS011;17906;47.684;10.806;2022-12-29T01:16:55;1.00;;;0.30;;
16737;SDS011;17906;47.684;10.806;2022-12-29T01:19:22;1.20;;;0.43;;
16737;SDS011;17906;47.684;10.806;2022-12-29T01:21:49;1.30;;;0.30;;
16737;SDS011;17906;47.684;10.806;2022-12-29T01:24:17;0.47;;;0.23;;
16737;SDS011;17906;47.684;10.806;2022-12-29T01:26:45;4.60;;;0.67;;
16737;SDS011;17906;47.684;10.806;2022-12-29T01:29:14;0.87;;;0.40;;
16737;SDS011;17906;47.684;10.806;2022-12-29T01:31:41;0.70;;;0.40;;
16737;SDS011;17906;47.684;10.806;2022-12-29T01:34:07;0.63;;;0.40;;
16737;SDS011;17906;47.684;10.806;2022-12-29T01:36:34;0.70;;;0.40;;
16737;SDS011;17906;47.684;10.806;2022-12-29T01:39:01;1.07;;;0.30;;
16737;SDS011;17906;47.684;10.806;2022-12-29T01:41:28;0.50;;;0.20;;
16737;SDS011;17906;47.684;10.806;2022-12-29T01:43:55;0.67;;;0.37;;
16737;SDS011;17906;47.684;10.806;2022-12-29T01:46:26;0.40;;;0.30;;
16737;SDS011;17906;47.684;10.806;2022-12-29T01:48:57;0.40;;;0.20;;
16737;SDS011;17906;47.684;10.806;2022-12-29T01:51:29;1.03;;;0.40;;
16737;SDS011;17906;47.684;10.806;2022-12-29T01:54:00;1.90;;;0.70;;
16737;SDS011;17906;47.684;10.806;2022-12-29T01:56:31;2.37;;;0.80;;
16737;SDS011;17906;47.684;10.806;2022-12-29T01:59:00;1.27;;;0.60;;
16737;SDS011;17906;47.684;10.806;2022-12-29T02:01:32;3.97;;;0.83;;
16737;SDS011;17906;47.684;10.806;2022-12-29T02:03:59;2.83;;;0.80;;
16737;SDS011;17906;47.684;10.806;2022-12-29T02:06:28;2.00;;;0.90;;
16737;SDS011;17906;47.684;10.806;2022-12-29T02:08:59;2.03;;;0.63;;
16737;SDS011;17906;47.684;10.806;2022-12-29T02:11:26;1.30;;;0.50;;
16737;SDS011;17906;47.684;10.806;2022-12-29T02:13:56;1.17;;;0.83;;
16737;SDS011;17906;47.684;10.806;2022-12-29T02:22:23;1.73;;;0.57;;
16737;SDS011;17906;47.684;10.806;2022-12-29T02:27:54;1.10;;;0.57;;
16737;SDS011;17906;47.684;10.806;2022-12-29T02:30:38;1.93;;;0.60;;
16737;SDS011;17906;47.684;10.806;2022-12-29T02:33:17;0.70;;;0.40;;
16737;SDS011;17906;47.684;10.806;2022-12-29T02:35:52;2.03;;;0.73;;
16737;SDS011;17906;47.684;10.806;2022-12-29T02:41:15;17.07;;;5.03;;
16737;SDS011;17906;47.684;10.806;2022-12-29T02:43:50;13.93;;;4.03;;
16737;SDS011;17906;47.684;10.806;2022-12-29T02:46:22;3.40;;;1.10;;
16737;SDS011;17906;47.684;10.806;2022-12-29T02:48:55;4.60;;;1.40;;
16737;SDS011;17906;47.684;10.806;2022-12-29T02:51:31;6.73;;;2.00;;
16737;SDS011;17906;47.684;10.806;2022-12-29T02:54:01;3.87;;;1.33;;
16737;SDS011;17906;47.684;10.806;2022-12-29T02:56:45;1.93;;;0.87;;
16737;SDS011;17906;47.684;10.806;2022-12-29T02:59:12;2.00;;;0.60;;
16737;SDS011;17906;47.684;10.806;2022-12-29T03:01:43;2.37;;;0.90;;
16737;SDS011;17906;47.684;10.806;2022-12-29T03:04:37;2.10;;;1.00;;
16737;SDS011;17906;47.684;10.806;2022-12-29T03:07:16;3.90;;;1.37;;
16737;SDS011;17906;47.684;10.806;2022-12-29T03:09:50;1.50;;;0.67;;
16737;SDS011;17906;47.684;10.806;2022-12-29T03:12:24;1.50;;;0.70;;
16737;SDS011;17906;47.684;10.806;2022-12-29T03:15:15;4.87;;;2.00;;
16737;SDS011;17906;47.684;10.806;2022-12-29T03:18:09;3.17;;;1.53;;
16737;SDS011;17906;47.684;10.806;2022-12-29T03:20:42;3.30;;;1.10;;
16737;SDS011;17906;47.684;10.806;2022-12-29T03:23:16;2.40;;;1.30;;
16737;SDS011;17906;47.684;10.806;2022-12-29T03:25:46;2.67;;;1.37;;
16737;SDS011;17906;47.684;10.806;2022-12-29T03:28:17;2.77;;;1.10;;
16737;SDS011;17906;47.684;10.806;2022-12-29T03:30:48;3.30;;;1.17;;
16737;SDS011;17906;47.684;10.806;2022-12-29T03:33:18;2.30;;;0.70;;
16737;SDS011;17906;47.684;10.806;2022-12-29T03:35:49;1.77;;;0.63;;
16737;SDS011;17906;47.684;10.806;2022-12-29T03:38:21;3.13;;;0.80;;
16737;SDS011;17906;47.684;10.806;2022-12-29T03:40:52;1.37;;;0.70;;
16737;SDS011;17906;47.684;10.806;2022-12-29T03:43:22;1.63;;;0.70;;
16737;SDS011;17906;47.684;10.806;2022-12-29T03:45:50;2.80;;;0.97;;
16737;SDS011;17906;47.684;10.806;2022-12-29T03:48:18;5.67;;;1.27;;
16737;SDS011;17906;47.684;10.806;2022-12-29T03:50:45;2.10;;;0.90;;
16737;SDS011;17906;47.684;10.806;2022-12-29T03:53:12;1.60;;;0.60;;
16737;SDS011;17906;47.684;10.806;2022-12-29T03:55:39;1.87;;;0.60;;
16737;SDS011;17906;47.684;10.806;2022-12-29T03:58:05;2.67;;;0.67;;
16737;SDS011;17906;47.684;10.806;2022-12-29T04:00:32;1.70;;;0.67;;
16737;SDS011;17906;47.684;10.806;2022-12-29T04:02:58;2.30;;;0.70;;
16737;SDS011;17906;47.684;10.806;2022-12-29T04:05:26;1.50;;;0.60;;
16737;SDS011;17906;47.684;10.806;2022-12-29T04:07:53;2.10;;;0.90;;
16737;SDS011;17906;47.684;10.806;2022-12-29T04:10:19;4.70;;;0.80;;
16737;SDS011;17906;47.684;10.806;2022-12-29T04:12:46;2.00;;;0.70;;
16737;SDS011;17906;47.684;10.806;2022-12-29T04:15:13;1.17;;;0.57;;
16737;SDS011;17906;47.684;10.806;2022-12-29T04:17:39;1.43;;;0.30;;
16737;SDS011;17906;47.684;10.806;2022-12-29T04:20:06;0.97;;;0.60;;
16737;SDS011;17906;47.684;10.806;2022-12-29T04:22:58;2.10;;;0.40;;
16737;SDS011;17906;47.684;10.806;2022-12-29T04:25:25;1.90;;;0.63;;
16737;SDS011;17906;47.684;10.806;2022-12-29T04:27:52;1.07;;;0.50;;
16737;SDS011;17906;47.684;10.806;2022-12-29T04:30:18;1.17;;;0.53;;
16737;SDS011;17906;47.684;10.806;2022-12-29T04:32:45;1.30;;;0.40;;
16737;SDS011;17906;47.684;10.806;2022-12-29T04:35:12;1.23;;;0.40;;
16737;SDS011;17906;47.684;10.806;2022-12-29T04:37:38;1.97;;;0.77;;
16737;SDS011;17906;47.684;10.806;2022-12-29T04:40:08;1.43;;;0.63;;
16737;SDS011;17906;47.684;10.806;2022-12-29T04:42:35;1.17;;;0.50;;
16737;SDS011;17906;47.684;10.806;2022-12-29T04:45:02;1.40;;;0.50;;
16737;SDS011;17906;47.684;10.806;2022-12-29T04:47:29;0.77;;;0.30;;
16737;SDS011;17906;47.684;10.806;2022-12-29T04:49:56;1.30;;;0.53;;
16737;SDS011;17906;47.684;10.806;2022-12-29T04:52:22;0.40;;;0.30;;
16737;SDS011;17906;47.684;10.806;2022-12-29T04:54:49;1.63;;;0.50;;
16737;SDS011;17906;47.684;10.806;2022-12-29T04:57:17;0.90;;;0.37;;
16737;SDS011;17906;47.684;10.806;2022-12-29T04:59:44;0.90;;;0.57;;
16737;SDS011;17906;47.684;10.806;2022-12-29T05:02:10;1.73;;;0.43;;
16737;SDS011;17906;47.684;10.806;2022-12-29T05:04:37;0.90;;;0.50;;
16737;SDS011;17906;47.684;10.806;2022-12-29T05:07:03;1.40;;;0.60;;
16737;SDS011;17906;47.684;10.806;2022-12-29T05:09:30;1.83;;;0.80;;
16737;SDS011;17906;47.684;10.806;2022-12-29T05:11:56;2.30;;;1.10;;
16737;SDS011;17906;47.684;10.806;2022-12-29T05:14:24;2.67;;;0.50;;
16737;SDS011;17906;47.684;10.806;2022-12-29T05:16:51;1.70;;;0.70;;
16737;SDS011;17906;47.684;10.806;2022-12-29T05:19:18;1.63;;;0.77;;
16737;SDS011;17906;47.684;10.806;2022-12-29T05:21:44;1.97;;;0.90;;
16737;SDS011;17906;47.684;10.806;2022-12-29T05:24:11;1.10;;;0.60;;
16737;SDS011;17906;47.684;10.806;2022-12-29T05:26:37;1.47;;;0.90;;
16737;SDS011;17906;47.684;10.806;2022-12-29T05:29:04;1.63;;;0.60;;
16737;SDS011;17906;47.684;10.806;2022-12-29T05:31:32;2.17;;;0.70;;
16737;SDS011;17906;47.684;10.806;2022-12-29T05:34:00;1.73;;;0.80;;
16737;SDS011;17906;47.684;10.806;2022-12-29T05:36:27;1.83;;;1.10;;
16737;SDS011;17906;47.684;10.806;2022-12-29T05:38:53;1.30;;;0.90;;
16737;SDS011;17906;47.684;10.806;2022-12-29T05:41:20;1.73;;;0.77;;
16737;SDS011;17906;47.684;10.806;2022-12-29T05:43:47;1.83;;;0.50;;
16737;SDS011;17906;47.684;10.806;2022-12-29T05:46:14;0.90;;;0.50;;
16737;SDS011;17906;47.684;10.806;2022-12-29T05:48:42;1.20;;;0.60;;
16737;SDS011;17906;47.684;10.806;2022-12-29T05:51:08;1.20;;;0.50;;
16737;SDS011;17906;47.684;10.806;2022-12-29T05:53:35;2.37;;;0.60;;
16737;SDS011;17906;47.684;10.806;2022-12-29T05:56:02;0.40;;;0.30;;
16737;SDS011;17906;47.684;10.806;2022-12-29T05:58:29;2.70;;;1.57;;
16737;SDS011;17906;47.684;10.806;2022-12-29T06:00:56;2.53;;;1.40;;
16737;SDS011;17906;47.684;10.806;2022-12-29T06:03:23;2.53;;;1.63;;
16737;SDS011;17906;47.684;10.806;2022-12-29T06:05:51;3.07;;;1.40;;
16737;SDS011;17906;47.684;10.806;2022-12-29T06:08:18;2.37;;;1.13;;
16737;SDS011;17906;47.684;10.806;2022-12-29T06:10:45;2.67;;;1.23;;
16737;SDS011;17906;47.684;10.806;2022-12-29T06:13:11;2.87;;;1.30;;
16737;SDS011;17906;47.684;10.806;2022-12-29T06:15:38;2.60;;;1.20;;
16737;SDS011;17906;47.684;10.806;2022-12-29T06:18:04;2.00;;;1.00;;
16737;SDS011;17906;47.684;10.806;2022-12-29T06:20:31;2.77;;;1.00;;
16737;SDS011;17906;47.684;10.806;2022-12-29T06:22:59;2.33;;;0.90;;
16737;SDS011;17906;47.684;10.806;2022-12-29T06:25:26;4.53;;;0.83;;
16737;SDS011;17906;47.684;10.806;2022-12-29T06:27:53;1.07;;;0.50;;
16737;SDS011;17906;47.684;10.806;2022-12-29T06:30:21;1.70;;;0.60;;
16737;SDS011;17906;47.684;10.806;2022-12-29T06:32:47;1.20;;;0.67;;
16737;SDS011;17906;47.684;10.806;2022-12-29T06:35:14;0.90;;;0.67;;
16737;SDS011;17906;47.684;10.806;2022-12-29T06:37:40;1.13;;;0.60;;
16737;SDS011;17906;47.684;10.806;2022-12-29T06:40:10;0.90;;;0.50;;
16737;SDS011;17906;47.684;10.806;2022-12-29T06:42:37;0.73;;;0.63;;
16737;SDS011;17906;47.684;10.806;2022-12-29T06:45:04;2.20;;;1.03;;
16737;SDS011;17906;47.684;10.806;2022-12-29T06:47:32;2.10;;;1.10;;
16737;SDS011;17906;47.684;10.806;2022-12-29T06:49:59;2.10;;;1.00;;
16737;SDS011;17906;47.684;10.806;2022-12-29T06:52:26;2.00;;;0.90;;
16737;SDS011;17906;47.684;10.806;2022-12-29T06:54:53;1.57;;;0.70;;
16737;SDS011;17906;47.684;10.806;2022-12-29T06:57:21;1.30;;;0.57;;
16737;SDS011;17906;47.684;10.806;2022-12-29T06:59:48;1.40;;;0.70;;
16737;SDS011;17906;47.684;10.806;2022-12-29T07:02:15;1.33;;;0.63;;
16737;SDS011;17906;47.684;10.806;2022-12-29T07:04:43;1.33;;;0.77;;
16737;SDS011;17906;47.684;10.806;2022-12-29T07:07:10;1.20;;;0.70;;
16737;SDS011;17906;47.684;10.806;2022-12-29T07:09:36;2.93;;;0.90;;
16737;SDS011;17906;47.684;10.806;2022-12-29T07:12:03;3.23;;;0.83;;
16737;SDS011;17906;47.684;10.806;2022-12-29T07:14:32;1.50;;;0.50;;
16737;SDS011;17906;47.684;10.806;2022-12-29T07:16:59;0.80;;;0.50;;
16737;SDS011;17906;47.684;10.806;2022-12-29T07:19:25;2.40;;;0.63;;
16737;SDS011;17906;47.684;10.806;2022-12-29T07:21:53;1.40;;;0.60;;
16737;SDS011;17906;47.684;10.806;2022-12-29T07:24:20;1.47;;;0.70;;
16737;SDS011;17906;47.684;10.806;2022-12-29T07:26:47;3.47;;;0.50;;
16737;SDS011;17906;47.684;10.806;2022-12-29T07:29:14;0.80;;;0.40;;
16737;SDS011;17906;47.684;10.806;2022-12-29T07:31:43;2.53;;;1.00;;
16737;SDS011;17906;47.684;10.806;2022-12-29T07:34:09;2.63;;;1.20;;
16737;SDS011;17906;47.684;10.806;2022-12-29T07:36:36;1.30;;;0.70;;
16737;SDS011;17906;47.684;10.806;2022-12-29T07:39:03;2.43;;;0.90;;
16737;SDS011;17906;47.684;10.806;2022-12-29T07:41:29;1.90;;;0.97;;
16737;SDS011;17906;47.684;10.806;2022-12-29T07:43:56;2.73;;;1.07;;
16737;SDS011;17906;47.684;10.806;2022-12-29T07:46:23;7.37;;;3.13;;
16737;SDS011;17906;47.684;10.806;2022-12-29T07:48:51;12.90;;;5.03;;
16737;SDS011;17906;47.684;10.806;2022-12-29T07:51:18;17.97;;;7.13;;
16737;SDS011;17906;47.684;10.806;2022-12-29T07:53:45;24.77;;;10.03;;
16737;SDS011;17906;47.684;10.806;2022-12-29T07:56:11;6.27;;;2.80;;
16737;SDS011;17906;47.684;10.806;2022-12-29T07:58:38;3.47;;;1.60;;
16737;SDS011;17906;47.684;10.806;2022-12-29T08:01:04;3.60;;;1.80;;
16737;SDS011;17906;47.684;10.806;2022-12-29T08:03:31;2.57;;;1.47;;
16737;SDS011;17906;47.684;10.806;2022-12-29T08:05:59;4.77;;;1.40;;
16737;SDS011;17906;47.684;10.806;2022-12-29T08:08:25;2.37;;;1.10;;
16737;SDS011;17906;47.684;10.806;2022-12-29T08:10:52;5.47;;;0.80;;
16737;SDS011;17906;47.684;10.806;2022-12-29T08:13:18;2.87;;;1.00;;
16737;SDS011;17906;47.684;10.806;2022-12-29T08:15:45;2.40;;;1.00;;
16737;SDS011;17906;47.684;10.806;2022-12-29T08:18:12;2.17;;;0.73;;
16737;SDS011;17906;47.684;10.806;2022-12-29T08:20:38;3.17;;;0.90;;
16737;SDS011;17906;47.684;10.806;2022-12-29T08:23:06;3.87;;;1.40;;
16737;SDS011;17906;47.684;10.806;2022-12-29T08:25:35;1.93;;;0.90;;
16737;SDS011;17906;47.684;10.806;2022-12-29T08:28:01;2.03;;;0.90;;
16737;SDS011;17906;47.684;10.806;2022-12-29T08:30:28;2.63;;;1.00;;
16737;SDS011;17906;47.684;10.806;2022-12-29T08:32:55;2.63;;;1.00;;
16737;SDS011;17906;47.684;10.806;2022-12-29T08:35:21;4.13;;;1.67;;
16737;SDS011;17906;47.684;10.806;2022-12-29T08:37:48;3.87;;;1.90;;
16737;SDS011;17906;47.684;10.806;2022-12-29T08:40:16;3.60;;;1.83;;
16737;SDS011;17906;47.684;10.806;2022-12-29T08:42:43;5.00;;;1.77;;
16737;SDS011;17906;47.684;10.806;2022-12-29T08:45:10;4.37;;;1.80;;
16737;SDS011;17906;47.684;10.806;2022-12-29T08:47:36;4.17;;;1.83;;
16737;SDS011;17906;47.684;10.806;2022-12-29T08:50:04;5.83;;;2.43;;
16737;SDS011;17906;47.684;10.806;2022-12-29T08:52:32;9.27;;;3.70;;
16737;SDS011;17906;47.684;10.806;2022-12-29T08:54:58;8.53;;;3.17;;
16737;SDS011;17906;47.684;10.806;2022-12-29T08:57:26;7.87;;;3.10;;
16737;SDS011;17906;47.684;10.806;2022-12-29T08:59:53;4.90;;;2.10;;
16737;SDS011;17906;47.684;10.806;2022-12-29T09:02:20;7.43;;;2.97;;
16737;SDS011;17906;47.684;10.806;2022-12-29T09:04:46;6.43;;;3.17;;
16737;SDS011;17906;47.684;10.806;2022-12-29T09:07:13;8.37;;;3.23;;
16737;SDS011;17906;47.684;10.806;2022-12-29T09:09:40;11.03;;;5.23;;
16737;SDS011;17906;47.684;10.806;2022-12-29T09:12:06;9.50;;;4.77;;
16737;SDS011;17906;47.684;10.806;2022-12-29T09:14:34;12.30;;;5.87;;
16737;SDS011;17906;47.684;10.806;2022-12-29T09:17:01;15.90;;;7.00;;
16737;SDS011;17906;47.684;10.806;2022-12-29T09:19:45;28.60;;;11.63;;
16737;SDS011;17906;47.684;10.806;2022-12-29T09:22:11;25.60;;;10.70;;
16737;SDS011;17906;47.684;10.806;2022-12-29T09:24:38;26.53;;;10.67;;
16737;SDS011;17906;47.684;10.806;2022-12-29T09:27:05;18.50;;;8.07;;
16737;SDS011;17906;47.684;10.806;2022-12-29T09:29:31;17.20;;;8.37;;
16737;SDS011;17906;47.684;10.806;2022-12-29T09:31:59;20.57;;;9.03;;
16737;SDS011;17906;47.684;10.806;2022-12-29T09:34:27;14.07;;;5.33;;
16737;SDS011;17906;47.684;10.806;2022-12-29T09:36:53;13.87;;;5.27;;
16737;SDS011;17906;47.684;10.806;2022-12-29T09:39:21;7.90;;;3.33;;
16737;SDS011;17906;47.684;10.806;2022-12-29T09:41:49;6.00;;;2.80;;
16737;SDS011;17906;47.684;10.806;2022-12-29T09:44:28;16.07;;;6.97;;
16737;SDS011;17906;47.684;10.806;2022-12-29T09:47:06;5.97;;;3.20;;
16737;SDS011;17906;47.684;10.806;2022-12-29T09:49:38;17.77;;;6.47;;
16737;SDS011;17906;47.684;10.806;2022-12-29T09:52:12;15.00;;;7.07;;
16737;SDS011;17906;47.684;10.806;2022-12-29T09:54:43;6.83;;;3.63;;
16737;SDS011;17906;47.684;10.806;2022-12-29T09:57:20;8.20;;;4.00;;
16737;SDS011;17906;47.684;10.806;2022-12-29T09:59:52;8.43;;;4.87;;
16737;SDS011;17906;47.684;10.806;2022-12-29T10:05:15;3.10;;;1.80;;
16737;SDS011;17906;47.684;10.806;2022-12-29T10:08:06;6.23;;;3.13;;
16737;SDS011;17906;47.684;10.806;2022-12-29T10:10:43;5.67;;;3.93;;
16737;SDS011;17906;47.684;10.806;2022-12-29T10:13:21;7.50;;;3.10;;
16737;SDS011;17906;47.684;10.806;2022-12-29T10:15:56;6.70;;;3.63;;
16737;SDS011;17906;47.684;10.806;2022-12-29T10:18:36;5.13;;;2.70;;
16737;SDS011;17906;47.684;10.806;2022-12-29T10:21:15;5.03;;;3.10;;
16737;SDS011;17906;47.684;10.806;2022-12-29T10:23:49;5.70;;;3.97;;
16737;SDS011;17906;47.684;10.806;2022-12-29T10:26:18;5.27;;;3.00;;
16737;SDS011;17906;47.684;10.806;2022-12-29T10:28:49;3.80;;;2.43;;
16737;SDS011;17906;47.684;10.806;2022-12-29T10:31:19;7.00;;;2.93;;
16737;SDS011;17906;47.684;10.806;2022-12-29T10:33:51;10.50;;;3.90;;
16737;SDS011;17906;47.684;10.806;2022-12-29T10:36:25;16.90;;;5.40;;
16737;SDS011;17906;47.684;10.806;2022-12-29T10:39:02;12.40;;;5.03;;
16737;SDS011;17906;47.684;10.806;2022-12-29T10:41:34;9.13;;;3.60;;
16737;SDS011;17906;47.684;10.806;2022-12-29T10:44:04;6.50;;;3.10;;
16737;SDS011;17906;47.684;10.806;2022-12-29T10:46:32;9.13;;;2.67;;
16737;SDS011;17906;47.684;10.806;2022-12-29T10:49:04;8.97;;;2.40;;
16737;SDS011;17906;47.684;10.806;2022-12-29T10:51:32;2.33;;;0.93;;
16737;SDS011;17906;47.684;10.806;2022-12-29T10:54:04;1.87;;;0.93;;
16737;SDS011;17906;47.684;10.806;2022-12-29T10:56:38;2.27;;;1.00;;
16737;SDS011;17906;47.684;10.806;2022-12-29T10:59:10;2.10;;;1.00;;
16737;SDS011;17906;47.684;10.806;2022-12-29T11:01:42;4.73;;;2.43;;
16737;SDS011;17906;47.684;10.806;2022-12-29T11:04:25;3.07;;;1.50;;
16737;SDS011;17906;47.684;10.806;2022-12-29T11:06:59;5.23;;;1.70;;
16737;SDS011;17906;47.684;10.806;2022-12-29T11:09:27;1.97;;;1.27;;
16737;SDS011;17906;47.684;10.806;2022-12-29T11:11:56;3.93;;;1.90;;
16737;SDS011;17906;47.684;10.806;2022-12-29T11:14:26;4.00;;;1.83;;
16737;SDS011;17906;47.684;10.806;2022-12-29T11:16:58;1.90;;;1.27;;
16737;SDS011;17906;47.684;10.806;2022-12-29T11:19:27;2.87;;;1.20;;
16737;SDS011;17906;47.684;10.806;2022-12-29T11:21:56;2.83;;;1.27;;
16737;SDS011;17906;47.684;10.806;2022-12-29T11:24:43;4.07;;;1.50;;
16737;SDS011;17906;47.684;10.806;2022-12-29T11:27:13;4.13;;;1.23;;
16737;SDS011;17906;47.684;10.806;2022-12-29T11:29:42;2.27;;;1.00;;
16737;SDS011;17906;47.684;10.806;2022-12-29T11:32:10;1.77;;;0.83;;
16737;SDS011;17906;47.684;10.806;2022-12-29T11:34:40;1.33;;;0.83;;
16737;SDS011;17906;47.684;10.806;2022-12-29T11:37:10;3.93;;;1.30;;
16737;SDS011;17906;47.684;10.806;2022-12-29T11:39:39;3.43;;;1.30;;
16737;SDS011;17906;47.684;10.806;2022-12-29T11:42:12;2.30;;;1.17;;
16737;SDS011;17906;47.684;10.806;2022-12-29T11:44:42;1.93;;;1.37;;
16737;SDS011;17906;47.684;10.806;2022-12-29T11:47:12;2.43;;;1.10;;
16737;SDS011;17906;47.684;10.806;2022-12-29T11:49:50;3.50;;;1.10;;
16737;SDS011;17906;47.684;10.806;2022-12-29T11:52:20;2.30;;;1.00;;
16737;SDS011;17906;47.684;10.806;2022-12-29T11:54:50;4.33;;;1.73;;
16737;SDS011;17906;47.684;10.806;2022-12-29T11:57:18;5.73;;;1.60;;
16737;SDS011;17906;47.684;10.806;2022-12-29T11:59:48;4.43;;;1.90;;
16737;SDS011;17906;47.684;10.806;2022-12-29T12:02:25;5.00;;;1.70;;
16737;SDS011;17906;47.684;10.806;2022-12-29T12:05:14;5.63;;;2.20;;
16737;SDS011;17906;47.684;10.806;2022-12-29T12:07:50;4.87;;;2.00;;
16737;SDS011;17906;47.684;10.806;2022-12-29T12:10:22;5.83;;;2.50;;
16737;SDS011;17906;47.684;10.806;2022-12-29T12:12:55;6.53;;;1.97;;
16737;SDS011;17906;47.684;10.806;2022-12-29T12:15:30;3.17;;;1.20;;
16737;SDS011;17906;47.684;10.806;2022-12-29T12:18:05;1.77;;;0.93;;
16737;SDS011;17906;47.684;10.806;2022-12-29T12:20:41;2.57;;;1.13;;
16737;SDS011;17906;47.684;10.806;2022-12-29T12:23:14;2.40;;;0.77;;
16737;SDS011;17906;47.684;10.806;2022-12-29T12:25:51;2.80;;;0.90;;
16737;SDS011;17906;47.684;10.806;2022-12-29T12:28:26;1.20;;;0.80;;
16737;SDS011;17906;47.684;10.806;2022-12-29T12:31:00;1.73;;;0.70;;
16737;SDS011;17906;47.684;10.806;2022-12-29T12:33:31;1.43;;;0.70;;
16737;SDS011;17906;47.684;10.806;2022-12-29T12:36:21;2.13;;;0.77;;
16737;SDS011;17906;47.684;10.806;2022-12-29T12:38:58;2.13;;;1.20;;
16737;SDS011;17906;47.684;10.806;2022-12-29T12:41:30;1.93;;;1.00;;
16737;SDS011;17906;47.684;10.806;2022-12-29T12:44:10;1.50;;;0.67;;
16737;SDS011;17906;47.684;10.806;2022-12-29T12:46:48;5.70;;;2.77;;
16737;SDS011;17906;47.684;10.806;2022-12-29T12:49:38;9.37;;;3.13;;
16737;SDS011;17906;47.684;10.806;2022-12-29T12:52:27;6.27;;;3.27;;
16737;SDS011;17906;47.684;10.806;2022-12-29T12:55:03;4.63;;;2.30;;
16737;SDS011;17906;47.684;10.806;2022-12-29T12:57:46;3.80;;;2.20;;
16737;SDS011;17906;47.684;10.806;2022-12-29T13:00:20;4.93;;;2.27;;
16737;SDS011;17906;47.684;10.806;2022-12-29T13:02:52;4.03;;;2.63;;
16737;SDS011;17906;47.684;10.806;2022-12-29T13:05:42;6.00;;;2.13;;
16737;SDS011;17906;47.684;10.806;2022-12-29T13:11:24;4.13;;;1.30;;
16737;SDS011;17906;47.684;10.806;2022-12-29T13:16:50;2.53;;;1.20;;
16737;SDS011;17906;47.684;10.806;2022-12-29T13:19:29;3.83;;;1.30;;
16737;SDS011;17906;47.684;10.806;2022-12-29T13:22:01;2.43;;;1.23;;
16737;SDS011;17906;47.684;10.806;2022-12-29T13:24:40;1.53;;;0.83;;
16737;SDS011;17906;47.684;10.806;2022-12-29T13:27:18;2.50;;;1.27;;
16737;SDS011;17906;47.684;10.806;2022-12-29T13:29:54;1.60;;;0.83;;
16737;SDS011;17906;47.684;10.806;2022-12-29T13:32:30;1.40;;;0.80;;
16737;SDS011;17906;47.684;10.806;2022-12-29T13:35:10;1.40;;;0.80;;
16737;SDS011;17906;47.684;10.806;2022-12-29T13:37:49;2.07;;;1.00;;
16737;SDS011;17906;47.684;10.806;2022-12-29T13:40:21;2.00;;;1.10;;
16737;SDS011;17906;47.684;10.806;2022-12-29T13:42:50;2.57;;;0.93;;
16737;SDS011;17906;47.684;10.806;2022-12-29T13:45:18;1.80;;;1.00;;
16737;SDS011;17906;47.684;10.806;2022-12-29T13:47:48;2.00;;;1.00;;
16737;SDS011;17906;47.684;10.806;2022-12-29T13:50:21;1.33;;;0.80;;
16737;SDS011;17906;47.684;10.806;2022-12-29T13:52:51;2.50;;;0.80;;
16737;SDS011;17906;47.684;10.806;2022-12-29T13:55:29;1.57;;;0.80;;
16737;SDS011;17906;47.684;10.806;2022-12-29T13:58:03;1.07;;;0.70;;
16737;SDS011;17906;47.684;10.806;2022-12-29T14:00:38;2.90;;;0.90;;
16737;SDS011;17906;47.684;10.806;2022-12-29T14:03:20;2.00;;;1.00;;
16737;SDS011;17906;47.684;10.806;2022-12-29T14:06:12;2.50;;;1.20;;
16737;SDS011;17906;47.684;10.806;2022-12-29T14:08:42;2.03;;;1.20;;
16737;SDS011;17906;47.684;10.806;2022-12-29T14:11:11;3.37;;;1.60;;
16737;SDS011;17906;47.684;10.806;2022-12-29T14:13:41;5.07;;;1.73;;
16737;SDS011;17906;47.684;10.806;2022-12-29T14:16:11;2.67;;;1.27;;
16737;SDS011;17906;47.684;10.806;2022-12-29T14:18:51;2.60;;;1.23;;
16737;SDS011;17906;47.684;10.806;2022-12-29T14:21:20;2.30;;;0.97;;
16737;SDS011;17906;47.684;10.806;2022-12-29T14:23:53;2.33;;;1.20;;
16737;SDS011;17906;47.684;10.806;2022-12-29T14:26:34;3.90;;;1.40;;
16737;SDS011;17906;47.684;10.806;2022-12-29T14:38:05;5.40;;;2.30;;
16737;SDS011;17906;47.684;10.806;2022-12-29T14:40:42;3.93;;;1.50;;
16737;SDS011;17906;47.684;10.806;2022-12-29T14:43:13;2.87;;;1.17;;
16737;SDS011;17906;47.684;10.806;2022-12-29T14:45:48;5.83;;;0.97;;
16737;SDS011;17906;47.684;10.806;2022-12-29T14:48:30;1.43;;;0.80;;
16737;SDS011;17906;47.684;10.806;2022-12-29T14:51:01;5.80;;;1.50;;
16737;SDS011;17906;47.684;10.806;2022-12-29T14:53:41;2.00;;;0.80;;
16737;SDS011;17906;47.684;10.806;2022-12-29T14:56:11;2.33;;;0.90;;
16737;SDS011;17906;47.684;10.806;2022-12-29T14:58:43;3.60;;;0.90;;
16737;SDS011;17906;47.684;10.806;2022-12-29T15:01:18;1.90;;;0.63;;
16737;SDS011;17906;47.684;10.806;2022-12-29T15:03:48;1.77;;;0.50;;
16737;SDS011;17906;47.684;10.806;2022-12-29T15:06:16;1.20;;;0.60;;
16737;SDS011;17906;47.684;10.806;2022-12-29T15:08:49;1.57;;;0.90;;
16737;SDS011;17906;47.684;10.806;2022-12-29T15:11:20;2.27;;;1.20;;
16737;SDS011;17906;47.684;10.806;2022-12-29T15:13:49;4.23;;;2.60;;
16737;SDS011;17906;47.684;10.806;2022-12-29T15:16:23;9.73;;;3.80;;
16737;SDS011;17906;47.684;10.806;2022-12-29T15:18:51;5.03;;;1.60;;
16737;SDS011;17906;47.684;10.806;2022-12-29T15:21:19;2.30;;;1.20;;
16737;SDS011;17906;47.684;10.806;2022-12-29T15:23:49;1.93;;;1.30;;
16737;SDS011;17906;47.684;10.806;2022-12-29T15:26:16;5.40;;;1.30;;